createdAt,value
2018-10-02T00:00:53.403Z,0
2018-10-02T00:01:55.487Z,0
2018-10-02T00:02:57.584Z,0
2018-10-02T00:03:59.664Z,0
2018-10-02T00:05:02.053Z,0
2018-10-02T00:06:04.150Z,0
2018-10-02T00:07:06.225Z,0
2018-10-02T00:08:08.594Z,0
2018-10-02T00:09:10.694Z,0
2018-10-02T00:10:13.168Z,0
2018-10-02T00:11:15.245Z,0
2018-10-02T00:12:17.333Z,0
2018-10-02T00:13:19.405Z,0
2018-10-02T00:14:21.490Z,0
2018-10-02T00:15:23.582Z,0
2018-10-02T00:16:25.670Z,0
2018-10-02T00:17:27.759Z,0
2018-10-02T00:18:30.121Z,0
2018-10-02T00:19:32.514Z,0
2018-10-02T00:20:35.011Z,0
2018-10-02T00:21:37.089Z,0
2018-10-02T00:22:39.182Z,0
2018-10-02T00:23:41.549Z,0
2018-10-02T00:24:43.631Z,0
2018-10-02T00:25:45.709Z,0
2018-10-02T00:26:47.800Z,0
2018-10-02T00:27:49.876Z,0
2018-10-02T00:28:51.958Z,0
2018-10-02T00:29:54.437Z,0
2018-10-02T00:30:56.507Z,0
2018-10-02T00:31:59.221Z,0
2018-10-02T00:33:01.147Z,0
2018-10-02T00:34:03.525Z,0
2018-10-02T00:35:06.282Z,0
2018-10-02T00:36:08.766Z,0
2018-10-02T00:37:10.850Z,0
2018-10-02T00:38:13.321Z,0
2018-10-02T00:39:15.414Z,0
2018-10-02T00:40:17.868Z,0
2018-10-02T00:41:19.955Z,0
2018-10-02T00:42:22.044Z,0
2018-10-02T00:43:24.123Z,0
2018-10-02T00:44:26.580Z,0
2018-10-02T00:45:28.664Z,0
2018-10-02T00:46:30.744Z,0
2018-10-02T00:47:33.222Z,0
2018-10-02T00:48:35.316Z,0
2018-10-02T00:49:37.396Z,0
2018-10-02T00:50:39.470Z,0
2018-10-02T00:51:41.566Z,0
2018-10-02T00:52:43.697Z,0
2018-10-02T00:53:45.724Z,0
2018-10-02T00:54:48.107Z,0
2018-10-02T00:55:50.208Z,0
2018-10-02T00:56:52.575Z,0
2018-10-02T00:57:54.948Z,0
2018-10-02T00:58:57.025Z,0
2018-10-02T00:59:59.117Z,0
2018-10-02T01:01:01.195Z,0
2018-10-02T01:02:03.275Z,0
2018-10-02T01:03:05.372Z,0
2018-10-02T01:04:07.448Z,0
2018-10-02T01:05:09.535Z,0
2018-10-02T01:06:12.300Z,0
2018-10-02T01:07:14.773Z,0
2018-10-02T01:08:16.837Z,0
2018-10-02T01:09:18.927Z,0
2018-10-02T01:10:21.011Z,0
2018-10-02T01:11:23.094Z,0
2018-10-02T01:12:25.185Z,0
2018-10-02T01:13:27.260Z,0
2018-10-02T01:14:29.340Z,0
2018-10-02T01:15:31.424Z,0
2018-10-02T01:16:33.505Z,0
2018-10-02T01:17:35.570Z,0
2018-10-02T01:18:37.652Z,0
2018-10-02T01:19:40.016Z,0
2018-10-02T01:20:42.107Z,0
2018-10-02T01:21:44.202Z,0
2018-10-02T01:22:46.282Z,0
2018-10-02T01:23:48.354Z,0
2018-10-02T01:24:50.463Z,0
2018-10-02T01:25:52.543Z,0
2018-10-02T01:26:54.620Z,0
2018-10-02T01:27:56.709Z,0
2018-10-02T01:28:58.777Z,0
2018-10-02T01:30:00.870Z,0
2018-10-02T01:31:03.628Z,0
2018-10-02T01:32:05.724Z,0
2018-10-02T01:33:07.794Z,0
2018-10-02T01:34:09.883Z,0
2018-10-02T01:35:12.259Z,0
2018-10-02T01:36:14.337Z,0
2018-10-02T01:37:16.732Z,0
2018-10-02T01:38:19.083Z,0
2018-10-02T01:39:21.552Z,0
2018-10-02T01:40:23.634Z,0
2018-10-02T01:41:26.012Z,0
2018-10-02T01:42:28.085Z,0
2018-10-02T01:43:30.576Z,0
2018-10-02T01:44:32.669Z,0
2018-10-02T01:45:34.743Z,0
2018-10-02T01:46:36.832Z,0
2018-10-02T01:47:38.911Z,0
2018-10-02T01:48:41.285Z,0
2018-10-02T01:49:43.366Z,0
2018-10-02T01:50:45.750Z,0
2018-10-02T01:51:47.831Z,0
2018-10-02T01:52:50.219Z,0
2018-10-02T01:53:52.296Z,0
2018-10-02T01:54:54.664Z,0
2018-10-02T01:55:56.755Z,0
2018-10-02T01:56:58.845Z,0
2018-10-02T01:58:00.917Z,0
2018-10-02T01:59:03.008Z,0
2018-10-02T02:00:05.093Z,0
2018-10-02T02:01:07.179Z,0
2018-10-02T02:02:09.272Z,0
2018-10-02T02:03:11.350Z,0
2018-10-02T02:04:13.446Z,0
2018-10-02T02:05:15.825Z,0
2018-10-02T02:06:17.921Z,0
2018-10-02T02:07:20.004Z,0
2018-10-02T02:08:22.085Z,0
2018-10-02T02:09:24.566Z,0
2018-10-02T02:10:26.647Z,0
2018-10-02T02:11:28.729Z,0
2018-10-02T02:12:30.806Z,0
2018-10-02T02:13:32.884Z,0
2018-10-02T02:14:35.278Z,0
2018-10-02T02:15:37.638Z,0
2018-10-02T02:16:39.717Z,0
2018-10-02T02:17:42.186Z,0
2018-10-02T02:18:44.255Z,0
2018-10-02T02:19:46.346Z,0
2018-10-02T02:20:48.425Z,0
2018-10-02T02:21:50.498Z,0
2018-10-02T02:22:52.580Z,0
2018-10-02T02:23:55.065Z,0
2018-10-02T02:24:57.428Z,0
2018-10-02T02:25:59.518Z,0
2018-10-02T02:27:01.595Z,0
2018-10-02T02:28:03.669Z,0
2018-10-02T02:29:05.753Z,0
2018-10-02T02:30:08.517Z,0
2018-10-02T02:31:10.892Z,0
2018-10-02T02:32:13.296Z,0
2018-10-02T02:33:15.386Z,0
2018-10-02T02:34:17.853Z,0
2018-10-02T02:35:20.338Z,0
2018-10-02T02:36:22.412Z,0
2018-10-02T02:37:24.800Z,0
2018-10-02T02:38:27.194Z,0
2018-10-02T02:39:29.603Z,0
2018-10-02T02:40:31.967Z,0
2018-10-02T02:41:34.641Z,0
2018-10-02T02:42:36.745Z,0
2018-10-02T02:43:38.815Z,0
2018-10-02T02:44:40.906Z,0
2018-10-02T02:45:43.282Z,0
2018-10-02T02:46:46.260Z,0
2018-10-02T02:47:48.729Z,0
2018-10-02T02:48:51.130Z,0
2018-10-02T02:49:53.495Z,0
2018-10-02T02:50:55.893Z,0
2018-10-02T02:51:58.276Z,0
2018-10-02T02:53:01.056Z,0
2018-10-02T02:54:03.454Z,0
2018-10-02T02:55:05.846Z,0
2018-10-02T02:56:08.223Z,0
2018-10-02T02:57:10.343Z,0
2018-10-02T02:58:12.423Z,0
2018-10-02T02:59:14.817Z,0
2018-10-02T03:00:17.193Z,0
2018-10-02T03:01:19.553Z,0
2018-10-02T03:02:22.021Z,0
2018-10-02T03:03:24.127Z,0
2018-10-02T03:04:26.596Z,0
2018-10-02T03:05:28.969Z,0
2018-10-02T03:06:31.350Z,0
2018-10-02T03:07:33.716Z,0
2018-10-02T03:08:36.202Z,0
2018-10-02T03:09:38.961Z,0
2018-10-02T03:10:41.042Z,0
2018-10-02T03:11:43.131Z,0
2018-10-02T03:12:45.514Z,0
2018-10-02T03:13:47.585Z,0
2018-10-02T03:14:49.667Z,0
2018-10-02T03:15:52.062Z,0
2018-10-02T03:16:54.134Z,0
2018-10-02T03:17:56.223Z,0
2018-10-02T03:18:58.307Z,0
2018-10-02T03:20:00.387Z,0
2018-10-02T03:21:02.458Z,0
2018-10-02T03:22:04.550Z,0
2018-10-02T03:23:06.634Z,0
2018-10-02T03:24:09.108Z,0
2018-10-02T03:25:11.209Z,0
2018-10-02T03:26:13.748Z,0
2018-10-02T03:27:15.771Z,0
2018-10-02T03:28:18.153Z,0
2018-10-02T03:29:20.552Z,0
2018-10-02T03:30:23.648Z,0
2018-10-02T03:31:25.721Z,0
2018-10-02T03:32:28.121Z,0
2018-10-02T03:33:30.491Z,0
2018-10-02T03:34:32.560Z,0
2018-10-02T03:35:34.642Z,0
2018-10-02T03:36:36.730Z,0
2018-10-02T03:37:39.131Z,0
2018-10-02T03:38:41.199Z,0
2018-10-02T03:39:43.594Z,0
2018-10-02T03:40:46.056Z,0
2018-10-02T03:41:48.168Z,0
2018-10-02T03:42:50.243Z,0
2018-10-02T03:43:52.617Z,0
2018-10-02T03:44:55.365Z,0
2018-10-02T03:45:57.854Z,0
2018-10-02T03:46:59.941Z,0
2018-10-02T03:48:02.318Z,0
2018-10-02T03:49:04.705Z,0
2018-10-02T03:50:07.063Z,0
2018-10-02T03:51:09.150Z,0
2018-10-02T03:52:11.235Z,0
2018-10-02T03:53:13.626Z,0
2018-10-02T03:54:16.003Z,0
2018-10-02T03:55:18.390Z,0
2018-10-02T03:56:20.468Z,0
2018-10-02T03:57:22.555Z,0
2018-10-02T03:58:24.659Z,0
2018-10-02T03:59:26.741Z,0
2018-10-02T04:00:29.128Z,0
2018-10-02T04:01:31.218Z,0
2018-10-02T04:02:33.298Z,0
2018-10-02T04:03:35.949Z,0
2018-10-02T04:04:38.261Z,0
2018-10-02T04:05:40.632Z,0
2018-10-02T04:06:42.722Z,0
2018-10-02T04:07:44.823Z,0
2018-10-02T04:08:47.210Z,0
2018-10-02T04:09:49.965Z,0
2018-10-02T04:10:52.066Z,0
2018-10-02T04:11:54.539Z,0
2018-10-02T04:12:56.640Z,0
2018-10-02T04:13:59.023Z,0
2018-10-02T04:15:01.399Z,0
2018-10-02T04:16:03.782Z,0
2018-10-02T04:17:06.769Z,0
2018-10-02T04:18:09.151Z,0
2018-10-02T04:19:11.813Z,0
2018-10-02T04:20:13.912Z,0
2018-10-02T04:21:15.995Z,0
2018-10-02T04:22:18.076Z,0
2018-10-02T04:23:20.179Z,0
2018-10-02T04:24:22.261Z,0
2018-10-02T04:25:24.945Z,0
2018-10-02T04:26:27.401Z,0
2018-10-02T04:27:29.494Z,0
2018-10-02T04:28:31.764Z,0
2018-10-02T04:29:33.651Z,0
2018-10-02T04:30:35.741Z,0
2018-10-02T04:31:37.810Z,0
2018-10-02T04:32:39.892Z,0
2018-10-02T04:33:42.008Z,0
2018-10-02T04:34:44.337Z,0
2018-10-02T04:35:46.422Z,0
2018-10-02T04:36:48.502Z,0
2018-10-02T04:37:50.579Z,0
2018-10-02T04:38:52.669Z,0
2018-10-02T04:39:55.042Z,0
2018-10-02T04:40:57.409Z,0
2018-10-02T04:41:59.497Z,0
2018-10-02T04:43:01.574Z,0
2018-10-02T04:44:03.666Z,0
2018-10-02T04:45:05.744Z,0
2018-10-02T04:46:07.820Z,0
2018-10-02T04:47:09.911Z,0
2018-10-02T04:48:11.981Z,0
2018-10-02T04:49:14.069Z,0
2018-10-02T04:50:16.150Z,0
2018-10-02T04:51:18.235Z,0
2018-10-02T04:52:20.589Z,0
2018-10-02T04:53:22.966Z,0
2018-10-02T04:54:25.442Z,0
2018-10-02T04:55:27.511Z,0
2018-10-02T04:56:29.612Z,0
2018-10-02T04:57:31.976Z,0
2018-10-02T04:58:34.054Z,0
2018-10-02T04:59:36.129Z,0
2018-10-02T05:00:38.520Z,0
2018-10-02T05:01:40.591Z,0
2018-10-02T05:02:42.679Z,0
2018-10-02T05:03:45.067Z,0
2018-10-02T05:04:47.138Z,0
2018-10-02T05:05:49.236Z,0
2018-10-02T05:06:51.610Z,0
2018-10-02T05:07:53.693Z,0
2018-10-02T05:08:55.779Z,0
2018-10-02T05:09:58.173Z,0
2018-10-02T05:11:00.547Z,0
2018-10-02T05:12:02.642Z,1
2018-10-02T05:13:04.724Z,1
2018-10-02T05:14:06.816Z,1
2018-10-02T05:15:08.889Z,1
2018-10-02T05:16:11.274Z,1
2018-10-02T05:17:13.350Z,1
2018-10-02T05:18:15.445Z,1
2018-10-02T05:19:17.840Z,2
2018-10-02T05:20:19.933Z,2
2018-10-02T05:21:22.606Z,2
2018-10-02T05:22:24.705Z,2
2018-10-02T05:23:27.494Z,2
2018-10-02T05:24:29.590Z,2
2018-10-02T05:25:32.754Z,2
2018-10-02T05:26:35.237Z,1
2018-10-02T05:27:37.359Z,1
2018-10-02T05:28:39.804Z,2
2018-10-02T05:29:42.195Z,2
2018-10-02T05:30:44.275Z,2
2018-10-02T05:31:46.362Z,2
2018-10-02T05:32:48.461Z,2
2018-10-02T05:33:50.558Z,3
2018-10-02T05:34:53.516Z,3
2018-10-02T05:35:55.834Z,3
2018-10-02T05:36:57.925Z,3
2018-10-02T05:38:00.002Z,3
2018-10-02T05:39:02.098Z,4
2018-10-02T05:40:04.187Z,4
2018-10-02T05:41:06.268Z,4
2018-10-02T05:42:08.360Z,4
2018-10-02T05:43:10.459Z,4
2018-10-02T05:44:13.220Z,4
2018-10-02T05:45:15.316Z,5
2018-10-02T05:46:17.411Z,5
2018-10-02T05:47:19.492Z,5
2018-10-02T05:48:21.579Z,6
2018-10-02T05:49:23.674Z,6
2018-10-02T05:50:26.333Z,7
2018-10-02T05:51:28.423Z,8
2018-10-02T05:52:30.515Z,8
2018-10-02T05:53:32.987Z,9
2018-10-02T05:54:35.406Z,9
2018-10-02T05:55:37.894Z,10
2018-10-02T05:56:39.971Z,10
2018-10-02T05:57:42.343Z,10
2018-10-02T05:58:44.437Z,10
2018-10-02T05:59:46.533Z,10
2018-10-02T06:00:49.017Z,10
2018-10-02T06:01:51.397Z,10
2018-10-02T06:02:53.501Z,10
2018-10-02T06:03:55.693Z,10
2018-10-02T06:04:57.671Z,10
2018-10-02T06:06:00.336Z,10
2018-10-02T06:07:02.435Z,10
2018-10-02T06:08:04.517Z,10
2018-10-02T06:09:06.608Z,10
2018-10-02T06:10:09.089Z,10
2018-10-02T06:11:11.165Z,10
2018-10-02T06:12:13.569Z,10
2018-10-02T06:13:15.656Z,11
2018-10-02T06:14:17.736Z,10
2018-10-02T06:15:19.829Z,10
2018-10-02T06:16:21.932Z,10
2018-10-02T06:17:24.405Z,11
2018-10-02T06:18:26.506Z,11
2018-10-02T06:19:28.596Z,11
2018-10-02T06:20:30.677Z,12
2018-10-02T06:21:32.767Z,12
2018-10-02T06:22:34.862Z,13
2018-10-02T06:23:37.232Z,13
2018-10-02T06:24:39.852Z,13
2018-10-02T06:25:41.942Z,13
2018-10-02T06:26:44.315Z,13
2018-10-02T06:27:46.422Z,13
2018-10-02T06:28:48.508Z,13
2018-10-02T06:29:50.601Z,13
2018-10-02T06:30:52.684Z,14
2018-10-02T06:31:55.079Z,14
2018-10-02T06:32:57.158Z,15
2018-10-02T06:33:59.245Z,15
2018-10-02T06:35:01.630Z,15
2018-10-02T06:36:03.708Z,15
2018-10-02T06:37:05.813Z,14
2018-10-02T06:38:08.412Z,13
2018-10-02T06:39:10.762Z,12
2018-10-02T06:40:13.227Z,12
2018-10-02T06:41:15.614Z,12
2018-10-02T06:42:17.796Z,12
2018-10-02T06:43:20.188Z,13
2018-10-02T06:44:22.340Z,14
2018-10-02T06:45:24.371Z,15
2018-10-02T06:46:26.752Z,16
2018-10-02T06:47:28.852Z,16
2018-10-02T06:48:30.937Z,15
2018-10-02T06:49:33.018Z,14
2018-10-02T06:50:35.607Z,14
2018-10-02T06:51:37.695Z,14
2018-10-02T06:52:39.986Z,14
2018-10-02T06:53:41.839Z,15
2018-10-02T06:54:44.227Z,14
2018-10-02T06:55:46.311Z,13
2018-10-02T06:56:48.435Z,13
2018-10-02T06:57:50.500Z,13
2018-10-02T06:58:52.587Z,13
2018-10-02T06:59:54.691Z,13
2018-10-02T07:00:56.771Z,13
2018-10-02T07:01:58.863Z,13
2018-10-02T07:03:00.979Z,13
2018-10-02T07:04:03.459Z,13
2018-10-02T07:05:05.824Z,13
2018-10-02T07:06:08.318Z,12
2018-10-02T07:07:10.704Z,13
2018-10-02T07:08:13.187Z,13
2018-10-02T07:09:15.290Z,13
2018-10-02T07:10:17.371Z,14
2018-10-02T07:11:19.463Z,15
2018-10-02T07:12:21.558Z,17
2018-10-02T07:13:23.660Z,18
2018-10-02T07:14:25.807Z,19
2018-10-02T07:15:27.837Z,19
2018-10-02T07:16:30.308Z,19
2018-10-02T07:17:32.519Z,17
2018-10-02T07:18:34.493Z,16
2018-10-02T07:19:36.580Z,15
2018-10-02T07:20:39.565Z,15
2018-10-02T07:21:41.903Z,15
2018-10-02T07:22:43.985Z,15
2018-10-02T07:23:46.077Z,17
2018-10-02T07:24:48.158Z,20
2018-10-02T07:25:50.247Z,22
2018-10-02T07:26:53.097Z,23
2018-10-02T07:27:55.817Z,23
2018-10-02T07:28:57.768Z,23
2018-10-02T07:29:59.878Z,23
2018-10-02T07:31:02.017Z,24
2018-10-02T07:32:04.496Z,24
2018-10-02T07:33:07.236Z,24
2018-10-02T07:34:09.205Z,25
2018-10-02T07:35:11.596Z,25
2018-10-02T07:36:14.072Z,26
2018-10-02T07:37:16.462Z,22
2018-10-02T07:38:18.538Z,19
2018-10-02T07:39:20.928Z,17
2018-10-02T07:40:23.015Z,18
2018-10-02T07:41:25.115Z,19
2018-10-02T07:42:27.780Z,19
2018-10-02T07:43:29.795Z,20
2018-10-02T07:44:32.392Z,20
2018-10-02T07:45:34.368Z,22
2018-10-02T07:46:36.470Z,25
2018-10-02T07:47:38.683Z,28
2018-10-02T07:48:40.650Z,29
2018-10-02T07:49:42.746Z,27
2018-10-02T07:50:44.902Z,25
2018-10-02T07:51:46.918Z,26
2018-10-02T07:52:49.294Z,27
2018-10-02T07:53:51.398Z,31
2018-10-02T07:54:53.464Z,33
2018-10-02T07:55:55.564Z,33
2018-10-02T07:56:58.143Z,33
2018-10-02T07:58:00.768Z,32
2018-10-02T07:59:03.540Z,29
2018-10-02T08:00:05.706Z,29
2018-10-02T08:01:07.714Z,31
2018-10-02T08:02:10.107Z,30
2018-10-02T08:03:12.184Z,30
2018-10-02T08:04:14.278Z,28
2018-10-02T08:05:16.878Z,30
2018-10-02T08:06:18.859Z,30
2018-10-02T08:07:20.963Z,30
2018-10-02T08:08:23.053Z,27
2018-10-02T08:09:25.144Z,24
2018-10-02T08:10:27.224Z,19
2018-10-02T08:11:29.350Z,22
2018-10-02T08:12:31.940Z,22
2018-10-02T08:13:34.449Z,25
2018-10-02T08:14:36.922Z,28
2018-10-02T08:15:38.921Z,25
2018-10-02T08:16:41.020Z,22
2018-10-02T08:17:43.205Z,21
2018-10-02T08:18:45.500Z,21
2018-10-02T08:19:47.583Z,22
2018-10-02T08:20:50.115Z,21
2018-10-02T08:21:52.137Z,22
2018-10-02T08:22:54.922Z,21
2018-10-02T08:23:57.919Z,25
2018-10-02T08:24:59.908Z,27
2018-10-02T08:26:02.292Z,31
2018-10-02T08:27:04.849Z,32
2018-10-02T08:28:07.468Z,37
2018-10-02T08:29:09.551Z,39
2018-10-02T08:30:12.390Z,43
2018-10-02T08:31:14.287Z,38
2018-10-02T08:32:16.372Z,42
2018-10-02T08:33:18.457Z,43
2018-10-02T08:34:20.931Z,42
2018-10-02T08:35:23.798Z,40
2018-10-02T08:36:25.776Z,35
2018-10-02T08:37:27.804Z,36
2018-10-02T08:38:29.957Z,35
2018-10-02T08:39:32.751Z,32
2018-10-02T08:40:35.145Z,30
2018-10-02T08:41:37.233Z,28
2018-10-02T08:42:39.320Z,31
2018-10-02T08:43:41.598Z,30
2018-10-02T08:44:44.051Z,31
2018-10-02T08:45:46.029Z,30
2018-10-02T08:46:48.116Z,28
2018-10-02T08:47:50.547Z,34
2018-10-02T08:48:52.599Z,37
2018-10-02T08:49:54.989Z,39
2018-10-02T08:50:57.149Z,37
2018-10-02T08:52:00.341Z,36
2018-10-02T08:53:02.305Z,35
2018-10-02T08:54:04.569Z,28
2018-10-02T08:55:06.487Z,33
2018-10-02T08:56:08.963Z,34
2018-10-02T08:57:11.365Z,34
2018-10-02T08:58:13.448Z,32
2018-10-02T08:59:15.536Z,33
2018-10-02T09:00:17.635Z,32
2018-10-02T09:01:19.725Z,33
2018-10-02T09:02:21.807Z,28
2018-10-02T09:03:24.193Z,27
2018-10-02T09:04:26.580Z,28
2018-10-02T09:05:29.482Z,28
2018-10-02T09:06:31.597Z,29
2018-10-02T09:07:33.952Z,26
2018-10-02T09:08:36.033Z,31
2018-10-02T09:09:38.507Z,31
2018-10-02T09:10:40.593Z,38
2018-10-02T09:11:42.674Z,37
2018-10-02T09:12:44.784Z,41
2018-10-02T09:13:46.884Z,42
2018-10-02T09:14:48.945Z,42
2018-10-02T09:15:51.150Z,47
2018-10-02T09:16:53.732Z,42
2018-10-02T09:17:55.752Z,41
2018-10-02T09:18:58.327Z,38
2018-10-02T09:20:00.295Z,46
2018-10-02T09:21:02.372Z,35
2018-10-02T09:22:04.605Z,38
2018-10-02T09:23:06.597Z,38
2018-10-02T09:24:08.932Z,40
2018-10-02T09:25:11.024Z,33
2018-10-02T09:26:13.125Z,36
2018-10-02T09:27:15.220Z,38
2018-10-02T09:28:17.613Z,29
2018-10-02T09:29:19.720Z,27
2018-10-02T09:30:21.833Z,23
2018-10-02T09:31:23.920Z,34
2018-10-02T09:32:28.799Z,37
2018-10-02T09:33:31.422Z,22
2018-10-02T09:34:33.884Z,23
2018-10-02T09:35:35.988Z,36
2018-10-02T09:36:38.641Z,33
2018-10-02T09:37:40.646Z,26
2018-10-02T09:38:42.746Z,29
2018-10-02T09:39:45.593Z,35
2018-10-02T09:40:47.557Z,31
2018-10-02T09:41:50.395Z,31
2018-10-02T09:42:52.781Z,29
2018-10-02T09:43:55.252Z,29
2018-10-02T09:44:57.707Z,31
2018-10-02T09:46:00.371Z,34
2018-10-02T09:47:02.755Z,36
2018-10-02T09:48:04.887Z,37
2018-10-02T09:49:07.732Z,41
2018-10-02T09:50:09.865Z,39
2018-10-02T09:51:11.940Z,36
2018-10-02T09:52:14.091Z,44
2018-10-02T09:53:16.179Z,43
2018-10-02T09:54:18.556Z,42
2018-10-02T09:55:21.383Z,42
2018-10-02T09:56:23.831Z,44
2018-10-02T09:57:25.923Z,49
2018-10-02T09:58:28.366Z,51
2018-10-02T09:59:30.465Z,49
2018-10-02T10:00:32.604Z,42
2018-10-02T10:01:34.953Z,48
2018-10-02T10:02:37.064Z,49
2018-10-02T10:03:39.425Z,64
2018-10-02T10:04:41.842Z,57
2018-10-02T10:05:44.267Z,53
2018-10-02T10:06:46.746Z,60
2018-10-02T10:07:48.848Z,63
2018-10-02T10:08:50.973Z,50
2018-10-02T10:09:53.357Z,49
2018-10-02T10:10:55.471Z,48
2018-10-02T10:11:57.568Z,41
2018-10-02T10:12:59.660Z,38
2018-10-02T10:14:02.072Z,32
2018-10-02T10:15:04.179Z,32
2018-10-02T10:16:06.645Z,34
2018-10-02T10:17:09.286Z,39
2018-10-02T10:18:11.408Z,31
2018-10-02T10:19:14.181Z,31
2018-10-02T10:20:16.327Z,34
2018-10-02T10:21:18.417Z,51
2018-10-02T10:22:21.113Z,59
2018-10-02T10:23:23.192Z,65
2018-10-02T10:24:25.306Z,48
2018-10-02T10:25:27.407Z,52
2018-10-02T10:26:29.525Z,55
2018-10-02T10:27:31.589Z,52
2018-10-02T10:28:34.601Z,72
2018-10-02T10:29:36.634Z,45
2018-10-02T10:30:38.722Z,39
2018-10-02T10:31:40.817Z,40
2018-10-02T10:32:43.531Z,51
2018-10-02T10:33:46.189Z,51
2018-10-02T10:34:48.680Z,37
2018-10-02T10:35:51.083Z,37
2018-10-02T10:36:53.162Z,30
2018-10-02T10:37:55.552Z,32
2018-10-02T10:38:57.648Z,33
2018-10-02T10:40:00.118Z,34
2018-10-02T10:41:03.508Z,34
2018-10-02T10:42:05.818Z,24
2018-10-02T10:43:08.291Z,23
2018-10-02T10:44:10.704Z,25
2018-10-02T10:45:12.800Z,26
2018-10-02T10:46:14.903Z,29
2018-10-02T10:47:16.999Z,30
2018-10-02T10:48:19.113Z,19
2018-10-02T10:49:21.184Z,19
2018-10-02T10:50:23.582Z,28
2018-10-02T10:51:25.667Z,29
2018-10-02T10:52:27.836Z,26
2018-10-02T10:53:30.165Z,25
2018-10-02T10:54:32.651Z,24
2018-10-02T10:55:34.758Z,23
2018-10-02T10:56:36.939Z,27
2018-10-02T10:57:39.296Z,22
2018-10-02T10:58:41.478Z,22
2018-10-02T10:59:43.479Z,25
2018-10-02T11:00:45.579Z,21
2018-10-02T11:01:47.668Z,26
2018-10-02T11:02:50.133Z,24
2018-10-02T11:03:52.505Z,21
2018-10-02T11:04:54.950Z,25
2018-10-02T11:05:57.028Z,26
2018-10-02T11:06:59.111Z,33
2018-10-02T11:08:01.500Z,28
2018-10-02T11:09:03.591Z,26
2018-10-02T11:10:05.671Z,20
2018-10-02T11:11:07.776Z,16
2018-10-02T11:12:10.156Z,15
2018-10-02T11:13:12.244Z,15
2018-10-02T11:14:14.337Z,17
2018-10-02T11:15:16.992Z,23
2018-10-02T11:16:18.997Z,21
2018-10-02T11:17:21.099Z,27
2018-10-02T11:18:23.190Z,19
2018-10-02T11:19:25.771Z,19
2018-10-02T11:20:28.108Z,15
2018-10-02T11:21:30.205Z,18
2018-10-02T11:22:32.276Z,15
2018-10-02T11:23:34.386Z,14
2018-10-02T11:24:36.477Z,15
2018-10-02T11:25:39.337Z,14
2018-10-02T11:26:41.809Z,14
2018-10-02T11:27:44.192Z,15
2018-10-02T11:28:46.284Z,14
2018-10-02T11:29:48.507Z,14
2018-10-02T11:30:50.772Z,15
2018-10-02T11:31:52.858Z,16
2018-10-02T11:32:54.955Z,18
2018-10-02T11:33:57.067Z,16
2018-10-02T11:34:59.432Z,23
2018-10-02T11:36:01.838Z,26
2018-10-02T11:37:04.672Z,21
2018-10-02T11:38:07.095Z,21
2018-10-02T11:39:09.169Z,20
2018-10-02T11:40:11.283Z,28
2018-10-02T11:41:13.690Z,35
2018-10-02T11:42:15.783Z,42
2018-10-02T11:43:18.335Z,34
2018-10-02T11:44:20.818Z,26
2018-10-02T11:45:22.875Z,30
2018-10-02T11:46:24.985Z,28
2018-10-02T11:47:27.378Z,24
2018-10-02T11:48:29.461Z,22
2018-10-02T11:49:32.289Z,21
2018-10-02T11:50:34.634Z,20
2018-10-02T11:51:36.734Z,23
2018-10-02T11:52:39.122Z,24
2018-10-02T11:53:41.497Z,26
2018-10-02T11:54:43.586Z,25
2018-10-02T11:55:46.177Z,23
2018-10-02T11:56:48.205Z,22
2018-10-02T11:57:50.298Z,20
2018-10-02T11:58:52.394Z,19
2018-10-02T11:59:54.473Z,14
2018-10-02T12:00:56.621Z,15
2018-10-02T12:01:58.659Z,17
2018-10-02T12:03:00.758Z,15
2018-10-02T12:04:03.225Z,15
2018-10-02T12:05:05.326Z,16
2018-10-02T12:06:07.440Z,15
2018-10-02T12:07:09.526Z,14
2018-10-02T12:08:11.943Z,14
2018-10-02T12:09:14.344Z,14
2018-10-02T12:10:16.764Z,15
2018-10-02T12:11:19.614Z,15
2018-10-02T12:12:21.719Z,17
2018-10-02T12:13:24.297Z,17
2018-10-02T12:14:28.452Z,17
2018-10-02T12:15:30.521Z,17
2018-10-02T12:16:32.600Z,18
2018-10-02T12:17:34.699Z,17
2018-10-02T12:18:36.793Z,15
2018-10-02T12:19:39.022Z,14
2018-10-02T12:20:40.999Z,12
2018-10-02T12:21:43.474Z,11
2018-10-02T12:22:45.961Z,9
2018-10-02T12:23:48.149Z,9
2018-10-02T12:24:50.422Z,12
2018-10-02T12:25:52.905Z,13
2018-10-02T12:26:54.993Z,14
2018-10-02T12:27:57.083Z,18
2018-10-02T12:28:59.191Z,18
2018-10-02T12:30:01.288Z,17
2018-10-02T12:31:03.817Z,14
2018-10-02T12:32:05.880Z,12
2018-10-02T12:33:08.317Z,12
2018-10-02T12:34:10.408Z,12
2018-10-02T12:35:12.504Z,11
2018-10-02T12:36:14.610Z,9
2018-10-02T12:37:16.995Z,12
2018-10-02T12:38:19.497Z,16
2018-10-02T12:39:21.599Z,14
2018-10-02T12:40:23.661Z,18
2018-10-02T12:41:25.771Z,16
2018-10-02T12:42:28.151Z,15
2018-10-02T12:43:30.244Z,20
2018-10-02T12:44:32.337Z,25
2018-10-02T12:45:34.446Z,23
2018-10-02T12:46:37.219Z,21
2018-10-02T12:47:39.615Z,23
2018-10-02T12:48:42.011Z,25
2018-10-02T12:49:44.447Z,24
2018-10-02T12:50:46.521Z,20
2018-10-02T12:51:48.613Z,21
2018-10-02T12:52:50.833Z,18
2018-10-02T12:53:52.802Z,12
2018-10-02T12:54:54.905Z,10
2018-10-02T12:55:57.011Z,14
2018-10-02T12:56:59.096Z,16
2018-10-02T12:58:01.186Z,20
2018-10-02T12:59:03.282Z,17
2018-10-02T13:00:05.762Z,17
2018-10-02T13:01:07.847Z,17
2018-10-02T13:02:09.962Z,15
2018-10-02T13:03:12.371Z,13
2018-10-02T13:04:14.747Z,14
2018-10-02T13:05:16.845Z,14
2018-10-02T13:06:18.923Z,15
2018-10-02T13:07:21.019Z,16
2018-10-02T13:08:23.499Z,13
2018-10-02T13:09:25.603Z,14
2018-10-02T13:10:27.675Z,11
2018-10-02T13:11:29.770Z,14
2018-10-02T13:12:31.865Z,14
2018-10-02T13:13:33.954Z,12
2018-10-02T13:14:36.736Z,15
2018-10-02T13:15:38.829Z,14
2018-10-02T13:16:41.000Z,14
2018-10-02T13:17:43.012Z,15
2018-10-02T13:18:45.123Z,14
2018-10-02T13:19:47.217Z,15
2018-10-02T13:20:50.009Z,14
2018-10-02T13:21:52.107Z,16
2018-10-02T13:22:54.197Z,15
2018-10-02T13:23:56.688Z,14
2018-10-02T13:24:58.780Z,15
2018-10-02T13:26:01.262Z,14
2018-10-02T13:27:03.368Z,16
2018-10-02T13:28:05.471Z,17
2018-10-02T13:29:07.562Z,13
2018-10-02T13:30:09.669Z,14
2018-10-02T13:31:11.760Z,14
2018-10-02T13:32:14.210Z,17
2018-10-02T13:33:16.247Z,17
2018-10-02T13:34:18.627Z,18
2018-10-02T13:35:21.049Z,20
2018-10-02T13:36:23.146Z,16
2018-10-02T13:37:25.528Z,12
2018-10-02T13:38:27.628Z,13
2018-10-02T13:39:30.107Z,14
2018-10-02T13:40:32.205Z,12
2018-10-02T13:41:34.297Z,11
2018-10-02T13:42:36.415Z,10
2018-10-02T13:43:39.199Z,10
2018-10-02T13:44:41.340Z,8
2018-10-02T13:45:43.389Z,8
2018-10-02T13:46:45.473Z,8
2018-10-02T13:47:47.579Z,8
2018-10-02T13:48:49.964Z,7
2018-10-02T13:49:52.084Z,7
2018-10-02T13:50:54.474Z,6
2018-10-02T13:51:56.962Z,5
2018-10-02T13:52:59.061Z,6
2018-10-02T13:54:01.159Z,7
2018-10-02T13:55:03.258Z,9
2018-10-02T13:56:05.342Z,9
2018-10-02T13:57:07.441Z,8
2018-10-02T13:58:09.534Z,9
2018-10-02T13:59:11.619Z,9
2018-10-02T14:00:13.715Z,8
2018-10-02T14:01:15.847Z,8
2018-10-02T14:02:17.933Z,10
2018-10-02T14:03:20.047Z,10
2018-10-02T14:04:22.150Z,9
2018-10-02T14:05:24.533Z,10
2018-10-02T14:06:26.952Z,11
2018-10-02T14:07:29.020Z,13
2018-10-02T14:08:31.100Z,15
2018-10-02T14:09:33.194Z,20
2018-10-02T14:10:35.583Z,19
2018-10-02T14:11:37.671Z,23
2018-10-02T14:12:39.778Z,14
2018-10-02T14:13:41.867Z,11
2018-10-02T14:14:43.966Z,10
2018-10-02T14:15:46.360Z,12
2018-10-02T14:16:48.471Z,14
2018-10-02T14:17:50.566Z,13
2018-10-02T14:18:52.660Z,15
2018-10-02T14:19:54.761Z,14
2018-10-02T14:20:56.845Z,12
2018-10-02T14:21:59.244Z,10
2018-10-02T14:23:02.343Z,9
2018-10-02T14:24:04.408Z,8
2018-10-02T14:25:06.499Z,10
2018-10-02T14:26:08.996Z,11
2018-10-02T14:27:11.091Z,10
2018-10-02T14:28:13.574Z,8
2018-10-02T14:29:15.612Z,8
2018-10-02T14:30:18.092Z,10
2018-10-02T14:31:20.196Z,11
2018-10-02T14:32:23.078Z,8
2018-10-02T14:33:25.179Z,11
2018-10-02T14:34:27.265Z,11
2018-10-02T14:35:29.361Z,13
2018-10-02T14:36:31.527Z,9
2018-10-02T14:37:33.546Z,7
2018-10-02T14:38:35.650Z,7
2018-10-02T14:39:37.743Z,6
2018-10-02T14:40:39.827Z,7
2018-10-02T14:41:41.937Z,9
2018-10-02T14:42:44.029Z,11
2018-10-02T14:43:46.124Z,13
2018-10-02T14:44:48.226Z,21
2018-10-02T14:45:50.309Z,20
2018-10-02T14:46:52.412Z,19
2018-10-02T14:47:54.505Z,20
2018-10-02T14:48:56.619Z,24
2018-10-02T14:49:58.716Z,21
2018-10-02T14:51:00.806Z,15
2018-10-02T14:52:02.901Z,11
2018-10-02T14:53:05.011Z,11
2018-10-02T14:54:07.090Z,9
2018-10-02T14:55:09.195Z,9
2018-10-02T14:56:11.301Z,10
2018-10-02T14:57:13.684Z,11
2018-10-02T14:58:15.762Z,10
2018-10-02T14:59:17.892Z,6
2018-10-02T15:00:19.961Z,6
2018-10-02T15:01:22.062Z,13
2018-10-02T15:02:24.171Z,14